Richmondville, New York
Current Conditions -  °F | °C
As of 11:15 PM on Thursday 27 Nov 2014 (Local Time) from KNY0 Reporting Station
Overcast Overcast  
Wind Chill: 19°   Ceiling: 4600
Heat Index: 24°   Visibility: 10mi
Dew Point: 22°   Wind: 5mph
Humidity: 90%   Direction: 280°W
Pressure: 30.02"   Gusts: NA
Location:  42.63°N, 74.56°W
Report Text: KNY0 280415Z AUTO 28004KT 10SM OVC046 M04/M06 A3002 RMK AO2 T10421056
Loading
Personal Weather Stations






























Interactive Weather Map New forecast layout! Learn more

10-Day Weather Forecast

Advertisements
Track Severe Weather on mobile